• Join FlightAware (Why Join?)
  • Login
  • US Flag 
08:35PM EDT


 

Airport Tracker/Info


-or-


 

Live Flight TrackerFlight Track Log ✈ FLG4222 ✈ 24-Sep-2013 ✈ KBGM - KDTW

Flight Track Log - Related Links

Times and Time Zones

All times are in EDT time to prevent confusion due to time zone crossing. See the FLG4222 flight status page for this flight to view local times or setup timezone preferences in your user account.

Time Position Orientation Groundspeed Altitude Reporting Facility
EDT Latitude Longitude Course Direction KTS MPH feet Rate Location/Type
11:53AM 42.2528 -76.0714 290° West 166 191 4,900  Level New York Center
11:54AM 42.2781 -76.1575 292° West 207 238 7,000 1,020 Climbing New York Center
11:55AM 42.3008 -76.2461 289° West 259 298 7,000 420 Level New York Center
11:56AM 42.3317 -76.3497 292° West 264 304 7,900 540 Climbing New York Center
11:57AM 42.3561 -76.4444 289° West 269 310 8,100 1,200 Climbing New York Center
11:58AM 42.2309 -76.7462 289° West  Level Estimated
11:59AM 42.4228 -76.6828 291° West 312 359 12,000  Level Cleveland Center
12:01PM 42.4536 -76.7986 290° West 325 374 13,600 1,560 Climbing Cleveland Center
12:02PM 42.4858 -76.9206 290° West 340 391 15,200 1,500 Climbing Cleveland Center
12:03PM 42.5192 -77.0450 290° West 350 403 16,700 1,260 Climbing Cleveland Center
12:04PM 42.5486 -77.1725 287° West 358 412 17,900 1,200 Climbing Cleveland Center
12:05PM 42.5564 -77.3128 274° West 374 430 19,300 1,140 Climbing Cleveland Center
12:06PM 42.5650 -77.4619 275° West 371 427 20,300 900 Climbing Cleveland Center
12:07PM 42.5725 -77.6047 274° West 377 434 21,200 840 Climbing Cleveland Center
12:08PM 42.5811 -77.7503 275° West 386 444 22,100 840 Climbing Cleveland Center
12:09PM 42.5906 -77.9264 274° West 389 448 23,000 720 Climbing Cleveland Center
12:10PM 42.5981 -78.0769 274° West 396 456 23,700 540 Climbing Cleveland Center
12:11PM 42.6053 -78.2292 274° West 402 463 24,200 480 Climbing Cleveland Center
12:12PM 42.6133 -78.3833 274° West 407 468 24,700 480 Climbing Cleveland Center
12:13PM 42.6208 -78.5422 274° West 420 483 25,300 480 Climbing Cleveland Center
12:14PM 42.6300 -78.7017 275° West 423 487 25,700 300 Climbing Cleveland Center
12:15PM 42.6386 -78.8931 274° West 424 488 26,000 120 Climbing Cleveland Center
12:16PM 42.6447 -79.0597 273° West 440 506 26,000  Level Cleveland Center
12:17PM 42.6525 -79.2267 274° West 443 510 26,000  Level Cleveland Center
12:18PM 42.6589 -79.3961 273° West 449 517 26,000  Level Cleveland Center
12:19PM 42.6647 -79.5650 273° West 448 516 26,000  Level Cleveland Center
12:20PM 42.6708 -79.7314 273° West 442 509 26,000  Level Cleveland Center
12:21PM 42.6769 -79.9264 273° West 432 497 26,000  Level Cleveland Center
12:22PM 42.6797 -80.0814 271° West 433 498 26,000  Level Cleveland Center
12:23PM 42.6869 -80.2508 273° West 442 509 26,000  Level Cleveland Center
12:24PM 42.6919 -80.4158 272° West 438 504 26,000  Level Cleveland Center
12:25PM 42.6978 -80.5825 273° West 438 504 26,000 -300 Level Cleveland Center
12:26PM 42.7036 -80.7772 272° West 442 509 25,500 -960 Descending Cleveland Center
12:27PM 42.6994 -80.9422 268° West 436 502 24,100 -780 Descending Cleveland Center
12:28PM 42.6811 -81.1028 261° West 429 494 24,000 -540 Descending Cleveland Center
12:29PM 42.6628 -81.2647 261° West 431 496 23,100 -960 Descending Cleveland Center
12:30PM 42.6442 -81.4206 261° West 421 484 22,000 -540 Descending Cleveland Center
12:32PM 42.6264 -81.5717 261° West 406 467 22,000 -660 Level Cleveland Center
12:33PM 42.6050 -81.7564 261° West 418 481 20,700 -1,320 Descending Cleveland Center
12:34PM 42.5892 -81.8883 261° West 403 464 19,300 -1,500 Descending Cleveland Center
12:35PM 42.5717 -82.0339 261° West 394 453 17,600 -1,800 Descending Cleveland Center
12:36PM 42.5542 -82.1761 261° West 386 444 15,700 -2,040 Descending Cleveland Center
12:37PM 42.5331 -82.3458 260° West 383 441 13,400 -2,220 Descending Cleveland Center
12:37PM 42.5267 -82.3961 260° West 382 440 12,800 -1,380 Descending Cleveland Center
12:38PM 42.5156 -82.4836 260° West 377 434 12,000 -540 Descending Cleveland Center
12:39PM 42.4894 -82.5981 253° West 307 353 12,000  Level Cleveland Center
12:39PM 42.4872 -82.5983 185° South 330 380 12,000  Level Cleveland Center
12:40PM 42.4575 -82.6956 248° West 264 304 12,000  Level Cleveland Center
12:40PM 42.4544 -82.6958 184° South 297 342 12,000  Level Cleveland Center
12:41PM 42.4975 -82.7489 318° Northwest 237 273 12,000 -120 Level Cleveland Center
12:41PM 42.5036 -82.7503 350° North 257 296 11,900 -1,020 Descending Cleveland Center
12:42PM 42.5414 -82.8086 311° West 252 290 11,000 -900 Descending Cleveland Center
12:42PM 42.5319 -82.8244 231° Southwest 245 282 11,000  Level Cleveland Center
12:43PM 42.4889 -82.8694 218° Southwest 231 266 11,000  Level Cleveland Center
12:43PM 42.4808 -82.8758 210° Southwest 234 269 11,000 -1,020 Level Cleveland Center
12:44PM 42.4417 -82.9139 216° Southwest 223 257 10,100 -1,200 Descending Cleveland Center
12:44PM 42.4258 -82.9142 181° South 229 264 9,800 -1,560 Descending Cleveland Center
12:45PM 42.3861 -82.9292 196° South 217 250 8,700 -1,560 Descending Cleveland Center
12:45PM 42.3781 -82.9500 242° Southwest 223 257 8,200 -1,860 Descending Cleveland Center
12:46PM 42.4017 -82.9992 303° West 228 262 6,800 -1,860 Descending Cleveland Center
12:46PM 42.4167 -83.0058 342° North 222 255 6,300 -660 Descending Cleveland Center
12:47PM 42.4719 -83.0142 354° North 204 235 6,000 -300 Descending Cleveland Center
12:47PM 42.4742 -83.0131 20° North 211 243 6,000  Level Cleveland Center
12:48PM 42.5139 -83.0397 334° Northwest 200 230 6,000  Level Cleveland Center
12:48PM 42.5189 -83.0597 289° West 206 237 6,000  Level Cleveland Center
12:49PM 42.5072 -83.1011 249° West 196 226 6,000  Level Cleveland Center
12:49PM 42.4972 -83.1233 239° Southwest 192 221 6,000  Level Cleveland Center
12:50PM 42.4700 -83.1497 216° Southwest 193 222 6,000  Level Cleveland Center
12:50PM 42.4514 -83.1600 202° Southwest 193 222 6,000 -660 Level Cleveland Center
12:51PM 42.4278 -83.1808 213° Southwest 191 220 5,400 -1,080 Descending Cleveland Center
12:51PM 42.4053 -83.1950 205° Southwest 190 219 4,900 -1,020 Descending Cleveland Center
12:52PM 42.3725 -83.2211 210° Southwest 176 203 4,200 -1,020 Descending Cleveland Center
12:52PM 42.3611 -83.2272 202° Southwest 185 213 3,900 -1,020 Descending Cleveland Center
12:53PM 42.3281 -83.2544 211° Southwest 182 209 3,200 -900 Descending Cleveland Center
12:53PM 42.3175 -83.2597 200° South 180 207 3,000 -1,020 Descending Cleveland Center
12:54PM 42.2900 -83.2831 212° Southwest 162 186 2,300 -1,080 Descending Cleveland Center
12:54PM 42.2708 -83.2947 204° Southwest 168 193 1,900 -720 Descending Cleveland Center
12:55PM 42.2544 -83.3092 213° Southwest 136 157 1,600 -720 Descending Cleveland Center
12:55PM 42.2369 -83.3189 202° Southwest 148 170 1,200 -780 Descending Cleveland Center
12:56PM 42.2236 -83.3300 212° Southwest 142 163 900 -240 Descending Cleveland Center
12:56PM 42.2033 -83.3450 209° Southwest 147 169 1,000 120 Climbing Cleveland Center